Time;durP1;ratioP1;P1;durP2;ratioP2;P2;SDS_P1;SDS_P2;PMS_P1;PMS_P2;Temp;Humidity;BMP_temperature;BMP_pressure;BME280_temperature;BME280_humidity;BME280_pressure;Samples;Min_cycle;Max_cycle;Signal;HPM_P1;HPM_P2
2021/01/11 00:00:36;;;;;;;3.95;2.15;;;12.50;99.90;;;;;;5092724;28;20101;-63
2021/01/11 00:03:04;;;;;;;4.10;2.58;;;12.50;99.90;;;;;;5093533;28;20403;-63
2021/01/11 00:05:33;;;;;;;6.70;2.13;;;12.50;99.90;;;;;;5076005;28;20071;-63
2021/01/11 00:08:02;;;;;;;3.72;2.38;;;12.30;99.90;;;;;;5076599;28;20051;-63
2021/01/11 00:10:29;;;;;;;6.10;1.92;;;12.30;99.90;;;;;;5093918;28;20504;-63
2021/01/11 00:12:58;;;;;;;3.63;2.17;;;12.20;99.90;;;;;;5093365;28;20101;-62
2021/01/11 00:15:26;;;;;;;8.02;2.17;;;12.20;99.90;;;;;;5092547;28;20561;-63
2021/01/11 00:17:53;;;;;;;6.22;3.53;;;12.20;99.90;;;;;;5093566;28;20504;-63
2021/01/11 00:20:21;;;;;;;7.75;3.03;;;12.30;99.90;;;;;;5093687;28;20048;-62
2021/01/11 00:22:49;;;;;;;6.00;2.47;;;12.30;99.90;;;;;;5092320;28;20427;-65
2021/01/11 00:25:17;;;;;;;5.57;3.75;;;12.30;99.90;;;;;;5092196;28;20048;-64
2021/01/11 00:27:45;;;;;;;5.82;3.45;;;12.30;99.90;;;;;;5109107;28;20052;-64
2021/01/11 00:30:13;;;;;;;7.07;2.67;;;12.30;99.90;;;;;;5113542;28;20048;-63
2021/01/11 00:32:41;;;;;;;4.53;3.03;;;12.30;99.90;;;;;;5113680;28;20131;-63
2021/01/11 00:35:09;;;;;;;5.25;2.78;;;12.40;99.90;;;;;;5113343;28;20050;-63
2021/01/11 00:37:38;;;;;;;5.60;2.88;;;12.40;99.90;;;;;;5113507;28;20047;-64
2021/01/11 00:40:08;;;;;;;6.40;2.78;;;12.50;99.90;;;;;;5113758;28;20044;-63
2021/01/11 00:42:37;;;;;;;4.13;2.80;;;12.60;99.90;;;;;;5113721;28;20120;-63
2021/01/11 00:45:08;;;;;;;3.80;2.50;;;12.50;99.90;;;;;;5112293;28;20051;-63
2021/01/11 00:47:40;;;;;;;6.20;2.30;;;12.40;99.90;;;;;;5112508;28;20130;-64
2021/01/11 00:50:12;;;;;;;6.25;2.33;;;12.30;99.90;;;;;;5112638;28;20489;-63
2021/01/11 00:52:40;;;;;;;10.07;3.30;;;12.20;99.90;;;;;;5112399;28;20047;-63
2021/01/11 00:55:13;;;;;;;5.78;2.67;;;12.20;99.90;;;;;;5112168;28;20075;-64
2021/01/11 00:57:49;;;;;;;5.60;3.08;;;12.10;99.90;;;;;;5076334;28;20519;-63
2021/01/11 01:00:22;;;;;;;6.45;3.28;;;12.10;99.90;;;;;;5091884;28;20048;-63
2021/01/11 01:02:56;;;;;;;5.50;2.90;;;12.10;99.90;;;;;;5075742;28;20044;-63
2021/01/11 01:05:23;;;;;;;6.95;3.78;;;12.10;99.90;;;;;;5092825;28;20132;-63
2021/01/11 01:07:51;;;;;;;6.00;3.28;;;12.10;99.90;;;;;;5092981;28;20052;-64
2021/01/11 01:10:19;;;;;;;5.53;3.13;;;12.10;99.90;;;;;;5093157;28;20051;-63
2021/01/11 01:12:47;;;;;;;8.85;3.88;;;12.10;99.90;;;;;;5092983;28;20056;-64
2021/01/11 01:15:15;;;;;;;5.32;3.58;;;12.20;99.90;;;;;;5092780;28;20051;-63
2021/01/11 01:17:43;;;;;;;6.80;3.25;;;12.20;99.90;;;;;;5091910;28;20055;-64
2021/01/11 01:20:16;;;;;;;5.35;2.60;;;12.30;99.90;;;;;;5091164;28;20044;-64
2021/01/11 01:22:48;;;;;;;6.72;3.38;;;12.40;99.90;;;;;;5092266;28;20109;-65
2021/01/11 01:25:16;;;;;;;6.32;3.45;;;12.30;99.90;;;;;;5092558;28;20043;-64
2021/01/11 01:27:44;;;;;;;3.45;2.17;;;12.20;99.90;;;;;;5111555;28;20040;-63
2021/01/11 01:30:13;;;;;;;5.63;2.53;;;12.20;99.90;;;;;;5097960;28;20127;-64
2021/01/11 01:32:41;;;;;;;4.18;2.65;;;12.10;99.90;;;;;;5092878;28;20048;-63
2021/01/11 01:35:11;;;;;;;4.45;3.47;;;12.10;99.90;;;;;;5091330;28;20075;-63
2021/01/11 01:37:39;;;;;;;5.57;2.15;;;12.20;99.90;;;;;;5092293;28;20040;-63
2021/01/11 01:40:07;;;;;;;6.00;3.00;;;12.20;99.90;;;;;;5096398;28;20520;-63
2021/01/11 01:42:35;;;;;;;8.88;3.25;;;12.30;99.90;;;;;;5095536;28;20044;-63
2021/01/11 01:45:05;;;;;;;4.97;2.45;;;12.20;99.90;;;;;;5096208;28;20127;-63
2021/01/11 01:47:34;;;;;;;11.98;2.80;;;12.30;99.90;;;;;;5095376;28;20051;-63
2021/01/11 01:50:05;;;;;;;33.28;4.65;;;12.20;99.90;;;;;;5095323;28;20051;-64
2021/01/11 01:52:37;;;;;;;33.28;5.30;;;12.20;99.90;;;;;;5095173;28;20060;-63
2021/01/11 01:55:07;;;;;;;6.32;2.78;;;12.10;99.90;;;;;;5095901;28;20105;-63
2021/01/11 01:57:35;;;;;;;3.42;1.70;;;12.10;99.90;;;;;;5112792;28;20050;-63
2021/01/11 02:00:07;;;;;;;10.18;2.72;;;12.10;99.90;;;;;;5112922;28;20040;-64
2021/01/11 02:02:41;;;;;;;5.88;2.72;;;12.10;99.90;;;;;;5098108;28;20086;-64
2021/01/11 02:05:09;;;;;;;4.93;1.88;;;12.10;99.90;;;;;;5080892;28;20147;-63
2021/01/11 02:08:02;;;;;;;4.25;1.15;;;12.00;99.90;;;;;;5115166;28;20506;-63
2021/01/11 02:10:44;;;;;;;5.97;1.27;;;11.90;99.90;;;;;;5114864;28;20077;-64
2021/01/11 02:13:27;;;;;;;5.07;1.73;;;11.80;99.90;;;;;;5115978;28;20052;-63
2021/01/11 02:16:15;;;;;;;7.68;1.20;;;11.70;99.90;;;;;;5114430;27;20040;-64
2021/01/11 02:19:08;;;;;;;2.83;1.05;;;11.60;99.90;;;;;;5113106;28;20036;-63
2021/01/11 02:21:54;;;;;;;7.15;1.15;;;11.60;99.90;;;;;;5115289;28;20488;-64
2021/01/11 02:24:56;;;;;;;6.78;1.58;;;11.60;99.90;;;;;;5098181;28;20083;-64
2021/01/11 02:27:47;;;;;;;4.85;1.50;;;11.50;99.90;;;;;;5115226;28;20415;-63
2021/01/11 02:30:25;;;;;;;3.92;1.65;;;11.40;99.90;;;;;;5108762;27;20105;-64
2021/01/11 02:33:19;;;;;;;7.30;1.35;;;11.50;99.90;;;;;;5099972;28;20052;-65
2021/01/11 02:35:46;;;;;;;5.03;1.25;;;11.40;99.90;;;;;;5093019;28;20048;-64
2021/01/11 02:38:20;;;;;;;9.23;2.42;;;11.30;99.90;;;;;;5078523;28;20044;-64
2021/01/11 02:40:49;;;;;;;6.00;2.40;;;11.20;99.90;;;;;;5094493;28;20051;-64
2021/01/11 02:43:17;;;;;;;7.65;2.00;;;11.20;99.90;;;;;;5108106;28;20047;-65
2021/01/11 02:45:45;;;;;;;4.75;1.70;;;11.20;99.90;;;;;;5094713;28;20052;-64
2021/01/11 02:48:14;;;;;;;4.45;1.65;;;11.10;99.90;;;;;;5102864;28;20047;-64
2021/01/11 02:51:09;;;;;;;3.95;1.30;;;11.10;99.90;;;;;;5083933;28;20055;-64
2021/01/11 02:54:10;;;;;;;5.50;1.20;;;11.10;99.90;;;;;;5098954;28;20063;-64
2021/01/11 02:56:44;;;;;;;5.53;1.80;;;11.10;99.90;;;;;;5110384;28;20105;-64
2021/01/11 02:59:39;;;;;;;4.10;1.77;;;11.10;99.90;;;;;;5113804;28;20183;-64
2021/01/11 03:02:08;;;;;;;4.85;1.63;;;11.00;99.90;;;;;;5096904;28;20051;-64
2021/01/11 03:04:37;;;;;;;16.02;2.83;;;11.00;99.90;;;;;;5095780;28;20104;-65
2021/01/11 03:07:07;;;;;;;7.95;1.98;;;11.00;99.90;;;;;;5114991;28;20054;-64
2021/01/11 03:09:39;;;;;;;6.15;1.88;;;11.00;99.90;;;;;;5097122;28;20078;-64
2021/01/11 03:12:07;;;;;;;15.13;3.95;;;11.00;99.90;;;;;;5094752;28;20040;-64
2021/01/11 03:14:35;;;;;;;5.68;2.10;;;11.00;99.90;;;;;;5095137;28;20058;-64
2021/01/11 03:17:03;;;;;;;6.10;2.70;;;11.10;99.90;;;;;;5094754;28;20507;-64
2021/01/11 03:19:31;;;;;;;3.97;2.47;;;11.10;99.90;;;;;;5108901;28;20040;-64
2021/01/11 03:22:00;;;;;;;6.65;2.50;;;11.10;99.90;;;;;;5114815;28;20048;-64
2021/01/11 03:24:27;;;;;;;7.85;3.05;;;11.00;99.90;;;;;;5113793;28;20051;-64
2021/01/11 03:26:59;;;;;;;13.30;4.10;;;11.00;99.90;;;;;;5111579;28;20058;-64
2021/01/11 03:29:30;;;;;;;8.35;3.50;;;10.90;99.90;;;;;;5093465;28;20063;-64
2021/01/11 03:31:58;;;;;;;8.00;3.75;;;11.00;99.90;;;;;;5104126;28;20475;-64
2021/01/11 03:34:25;;;;;;;6.40;3.08;;;11.00;99.90;;;;;;5106416;28;20547;-64
2021/01/11 03:36:53;;;;;;;5.03;3.08;;;11.10;99.90;;;;;;5094094;28;20131;-64
2021/01/11 03:39:23;;;;;;;26.15;3.72;;;11.10;99.90;;;;;;5093878;28;20129;-64
2021/01/11 03:41:51;;;;;;;5.65;3.22;;;11.00;99.90;;;;;;5104150;28;20515;-64
2021/01/11 03:44:19;;;;;;;7.47;2.47;;;11.00;99.90;;;;;;5096273;28;20056;-64
2021/01/11 03:46:46;;;;;;;7.72;3.55;;;11.10;99.90;;;;;;5094310;28;20075;-64
2021/01/11 03:49:14;;;;;;;8.68;3.05;;;11.10;99.90;;;;;;5107885;28;20047;-64
2021/01/11 03:51:41;;;;;;;12.13;5.72;;;11.10;99.90;;;;;;5114564;28;20047;-64
2021/01/11 03:54:09;;;;;;;11.05;3.38;;;11.10;99.90;;;;;;5099073;28;20209;-64
2021/01/11 03:56:37;;;;;;;8.57;4.13;;;11.10;99.90;;;;;;5094110;28;20147;-64
2021/01/11 03:59:07;;;;;;;7.25;4.45;;;11.10;99.90;;;;;;5106782;28;20054;-64
2021/01/11 04:01:37;;;;;;;8.05;4.05;;;11.10;99.90;;;;;;5113832;28;20043;-64
2021/01/11 04:04:05;;;;;;;11.80;4.40;;;11.10;99.90;;;;;;5100327;28;20055;-64
2021/01/11 04:06:32;;;;;;;16.95;4.95;;;11.20;99.90;;;;;;5108450;28;20519;-63
2021/01/11 04:09:00;;;;;;;17.08;4.50;;;11.10;99.90;;;;;;5084294;28;20132;-64
2021/01/11 04:11:28;;;;;;;10.95;4.45;;;11.10;99.90;;;;;;5094360;28;20044;-64
2021/01/11 04:13:56;;;;;;;16.25;3.70;;;11.10;99.90;;;;;;5112217;28;20052;-64
2021/01/11 04:16:23;;;;;;;8.90;4.25;;;11.10;99.90;;;;;;5112821;28;20412;-64
2021/01/11 04:18:52;;;;;;;8.48;3.75;;;11.10;99.90;;;;;;5092121;28;20127;-63
2021/01/11 04:21:19;;;;;;;10.68;3.78;;;11.10;99.90;;;;;;5092040;28;20054;-63
2021/01/11 04:23:47;;;;;;;9.73;4.22;;;11.10;99.90;;;;;;5111310;28;20492;-64
2021/01/11 04:26:15;;;;;;;9.70;3.60;;;11.10;99.90;;;;;;5098943;28;20048;-63
2021/01/11 04:28:43;;;;;;;10.70;3.30;;;11.10;99.90;;;;;;5104372;28;20052;-63
2021/01/11 04:31:10;;;;;;;8.52;2.85;;;11.10;99.90;;;;;;5108596;28;20145;-64
2021/01/11 04:33:38;;;;;;;14.57;3.08;;;11.00;99.90;;;;;;5092579;28;20059;-65
2021/01/11 04:36:07;;;;;;;8.77;3.35;;;11.00;99.90;;;;;;5099407;28;20517;-64
2021/01/11 04:38:34;;;;;;;9.45;3.65;;;11.00;99.90;;;;;;5112565;28;20126;-64
2021/01/11 04:41:03;;;;;;;13.18;3.40;;;10.90;99.90;;;;;;5111652;28;20066;-64
2021/01/11 04:43:45;;;;;;;7.82;3.13;;;10.90;99.90;;;;;;5098053;28;20039;-64
2021/01/11 04:46:14;;;;;;;14.52;4.22;;;10.90;99.90;;;;;;5110142;28;20108;-64
2021/01/11 04:48:45;;;;;;;6.80;3.30;;;10.90;99.90;;;;;;5091880;28;20052;-64
2021/01/11 04:51:13;;;;;;;9.32;3.72;;;10.90;99.90;;;;;;5093501;28;20056;-64
2021/01/11 04:53:47;;;;;;;13.48;3.72;;;10.80;99.90;;;;;;5111823;28;20074;-64
2021/01/11 04:56:15;;;;;;;8.20;3.35;;;10.80;99.90;;;;;;5112502;28;20130;-64
2021/01/11 04:58:57;;;;;;;9.02;2.97;;;10.80;99.90;;;;;;5110029;28;20044;-64
2021/01/11 05:01:29;;;;;;;10.52;3.35;;;10.80;99.90;;;;;;5110071;28;20035;-63
2021/01/11 05:04:01;;;;;;;7.95;3.70;;;10.80;99.90;;;;;;5091023;28;20516;-63
2021/01/11 05:06:30;;;;;;;15.10;5.07;;;10.80;99.90;;;;;;5092249;28;20105;-64
2021/01/11 05:09:06;;;;;;;8.63;3.83;;;10.80;99.90;;;;;;5096760;28;20055;-63
2021/01/11 05:11:35;;;;;;;9.10;3.60;;;10.80;99.90;;;;;;5092987;28;20463;-64
2021/01/11 05:14:02;;;;;;;12.07;3.50;;;10.80;99.90;;;;;;5092174;28;20064;-63
2021/01/11 05:16:31;;;;;;;7.88;4.07;;;10.80;99.90;;;;;;5100117;28;20424;-63
2021/01/11 05:19:24;;;;;;;10.20;3.88;;;10.80;99.90;;;;;;5096738;28;20440;-63
2021/01/11 05:21:52;;;;;;;7.85;4.82;;;10.80;99.90;;;;;;5114182;28;20089;-64
2021/01/11 05:24:33;;;;;;;9.30;3.30;;;10.80;99.90;;;;;;5106979;28;20519;-64
2021/01/11 05:27:06;;;;;;;8.48;3.63;;;10.80;99.90;;;;;;5093875;28;20043;-64
2021/01/11 05:29:38;;;;;;;8.25;4.32;;;10.80;99.90;;;;;;5102733;28;20044;-64
2021/01/11 05:32:11;;;;;;;8.05;3.88;;;10.80;99.90;;;;;;5113521;28;20382;-64
2021/01/11 05:34:51;;;;;;;9.32;4.38;;;10.70;99.90;;;;;;5107201;28;20140;-63
2021/01/11 05:37:39;;;;;;;7.00;3.05;;;10.80;99.90;;;;;;5095567;28;20051;-63
2021/01/11 05:40:12;;;;;;;8.80;3.33;;;10.70;99.90;;;;;;5096462;28;20040;-64
2021/01/11 05:42:41;;;;;;;7.68;4.13;;;10.70;99.90;;;;;;5097262;28;20052;-64
2021/01/11 05:45:14;;;;;;;7.35;3.67;;;10.70;99.90;;;;;;5103433;28;20052;-64
2021/01/11 05:47:58;;;;;;;14.48;4.70;;;10.70;99.90;;;;;;5102176;28;20069;-63
2021/01/11 05:50:48;;;;;;;10.13;4.15;;;10.70;99.90;;;;;;5098607;28;20415;-64
2021/01/11 05:53:21;;;;;;;11.95;4.25;;;10.70;99.90;;;;;;5110030;28;20050;-63
2021/01/11 05:55:50;;;;;;;8.55;3.60;;;10.70;99.90;;;;;;5096025;28;20416;-64
2021/01/11 05:58:19;;;;;;;12.40;6.10;;;10.60;99.90;;;;;;5098933;28;20040;-64
2021/01/11 06:00:48;;;;;;;15.93;6.85;;;10.60;99.90;;;;;;5116169;28;20048;-64
2021/01/11 06:03:17;;;;;;;14.38;4.30;;;10.60;99.90;;;;;;5112124;28;20044;-63
2021/01/11 06:05:44;;;;;;;12.15;5.03;;;10.60;99.90;;;;;;5094567;28;20052;-64
2021/01/11 06:08:14;;;;;;;12.55;3.33;;;10.60;99.90;;;;;;5110146;28;20138;-63
2021/01/11 06:10:44;;;;;;;6.10;3.25;;;10.70;99.90;;;;;;5104973;28;20068;-63
2021/01/11 06:13:13;;;;;;;14.73;4.18;;;10.60;99.90;;;;;;5095494;28;20467;-63
2021/01/11 06:15:40;;;;;;;17.67;4.63;;;10.60;99.90;;;;;;5105095;28;20134;-63
2021/01/11 06:18:10;;;;;;;7.90;4.35;;;10.60;99.90;;;;;;5115346;28;20077;-63
2021/01/11 06:20:46;;;;;;;18.85;4.97;;;10.60;99.90;;;;;;5114371;28;20094;-64
2021/01/11 06:23:27;;;;;;;7.78;5.07;;;10.60;99.90;;;;;;5100289;28;20442;-63
2021/01/11 06:25:55;;;;;;;8.73;4.18;;;10.60;99.90;;;;;;5106274;28;20055;-63
2021/01/11 06:28:34;;;;;;;7.97;3.85;;;10.70;99.90;;;;;;5115954;28;20043;-63
2021/01/11 06:31:17;;;;;;;7.22;3.85;;;10.60;99.90;;;;;;5113057;28;20130;-63
2021/01/11 06:33:45;;;;;;;12.52;3.95;;;10.70;99.90;;;;;;5115366;28;20131;-64
2021/01/11 06:36:24;;;;;;;15.40;3.47;;;10.60;99.90;;;;;;5113610;28;20052;-64
2021/01/11 06:38:56;;;;;;;6.88;3.10;;;10.60;99.90;;;;;;5115798;28;20051;-64
2021/01/11 06:41:30;;;;;;;7.05;2.92;;;10.60;99.90;;;;;;5107567;28;20047;-64
2021/01/11 06:44:09;;;;;;;9.75;3.65;;;10.60;99.90;;;;;;5115178;28;20047;-63
2021/01/11 06:46:43;;;;;;;8.80;4.13;;;10.60;99.90;;;;;;5099798;28;20048;-63
2021/01/11 06:49:30;;;;;;;22.27;7.10;;;10.60;99.90;;;;;;5102086;28;20052;-63
2021/01/11 06:52:09;;;;;;;15.38;5.32;;;10.60;99.90;;;;;;5130733;27;20039;-63
2021/01/11 06:54:44;;;;;;;15.80;4.25;;;10.60;99.90;;;;;;5113487;28;20054;-62
2021/01/11 06:57:17;;;;;;;7.45;2.72;;;10.50;99.90;;;;;;5113405;28;20035;-63
2021/01/11 06:59:46;;;;;;;13.02;5.28;;;10.50;99.90;;;;;;5112308;28;20504;-62
2021/01/11 07:02:25;;;;;;;5.65;3.03;;;10.50;99.90;;;;;;5106367;28;20040;-63
2021/01/11 07:04:53;;;;;;;16.02;3.80;;;10.50;99.90;;;;;;5092057;28;20121;-64
2021/01/11 07:07:25;;;;;;;8.57;3.55;;;10.60;99.90;;;;;;5096426;28;20063;-63
2021/01/11 07:09:55;;;;;;;5.68;2.90;;;10.60;99.90;;;;;;5113269;28;20428;-63
2021/01/11 07:12:23;;;;;;;12.38;4.40;;;10.70;99.90;;;;;;5109755;28;20051;-63
2021/01/11 07:15:14;;;;;;;14.48;2.97;;;10.70;99.90;;;;;;5094803;28;20492;-64
2021/01/11 07:17:48;;;;;;;5.38;2.47;;;10.80;99.90;;;;;;5113714;28;20063;-63
2021/01/11 07:20:41;;;;;;;3.70;2.13;;;10.80;99.90;;;;;;5109108;28;20076;-63
2021/01/11 07:23:09;;;;;;;7.35;2.20;;;10.70;99.90;;;;;;5094017;28;20109;-63
2021/01/11 07:25:37;;;;;;;10.77;3.53;;;10.80;99.90;;;;;;5094150;28;20055;-64
2021/01/11 07:28:05;;;;;;;12.10;3.03;;;10.70;99.90;;;;;;5109845;28;20130;-63
2021/01/11 07:30:38;;;;;;;9.43;3.38;;;10.80;99.90;;;;;;5111346;28;20074;-63
2021/01/11 07:33:12;;;;;;;5.93;3.13;;;10.80;99.90;;;;;;5112610;28;20055;-63
2021/01/11 07:35:40;;;;;;;11.27;2.30;;;10.90;99.90;;;;;;5102111;28;20059;-63
2021/01/11 07:38:12;;;;;;;8.68;3.63;;;10.90;99.90;;;;;;5092982;28;20048;-63
2021/01/11 07:40:40;;;;;;;12.15;2.90;;;10.90;99.90;;;;;;5095544;28;20067;-63
2021/01/11 07:43:08;;;;;;;18.25;3.58;;;11.00;99.90;;;;;;5093576;28;20046;-63
2021/01/11 07:45:36;;;;;;;7.70;2.53;;;11.00;99.90;;;;;;5099967;28;20048;-63
2021/01/11 07:48:06;;;;;;;4.22;2.28;;;11.00;99.90;;;;;;5094982;28;20052;-64
2021/01/11 07:50:34;;;;;;;10.48;2.70;;;11.10;99.90;;;;;;5104247;28;20097;-63
2021/01/11 07:53:02;;;;;;;7.13;2.95;;;11.10;99.90;;;;;;5114059;28;20047;-63
2021/01/11 07:55:33;;;;;;;10.10;3.83;;;11.10;99.90;;;;;;5102969;28;20089;-63
2021/01/11 07:58:02;;;;;;;11.25;3.75;;;11.10;99.90;;;;;;5092874;28;20044;-63
2021/01/11 08:00:32;;;;;;;10.13;2.88;;;11.10;99.90;;;;;;5093157;28;20082;-63
2021/01/11 08:03:00;;;;;;;10.68;2.78;;;11.10;99.90;;;;;;5093714;28;20058;-62
2021/01/11 08:05:30;;;;;;;7.53;1.98;;;11.10;99.90;;;;;;5111013;28;20095;-64
2021/01/11 08:08:06;;;;;;;7.38;3.33;;;11.20;99.90;;;;;;5112665;28;20046;-63
2021/01/11 08:10:35;;;;;;;19.67;3.45;;;11.30;99.90;;;;;;5097088;28;20046;-63
2021/01/11 08:13:09;;;;;;;8.32;2.65;;;11.30;99.90;;;;;;5113357;28;20076;-63
2021/01/11 08:15:37;;;;;;;6.93;2.20;;;11.40;99.90;;;;;;5092313;28;20451;-63
2021/01/11 08:18:07;;;;;;;18.02;2.90;;;11.50;99.90;;;;;;5093842;28;20040;-62
2021/01/11 08:20:35;;;;;;;11.10;3.35;;;11.50;99.90;;;;;;5100195;28;20043;-62
2021/01/11 08:23:09;;;;;;;6.18;2.72;;;11.60;99.90;;;;;;5110843;28;20055;-62
2021/01/11 08:25:38;;;;;;;12.52;1.70;;;11.60;99.90;;;;;;5110108;28;20104;-63
2021/01/11 08:28:09;;;;;;;10.00;1.98;;;11.70;99.90;;;;;;5078381;28;20128;-63
2021/01/11 08:30:37;;;;;;;8.45;2.92;;;11.80;99.90;;;;;;5097911;28;20093;-63
2021/01/11 08:33:08;;;;;;;8.27;2.40;;;11.90;99.90;;;;;;5101702;28;20126;-62
2021/01/11 08:35:36;;;;;;;17.67;3.28;;;12.00;99.90;;;;;;5111326;28;20404;-63
2021/01/11 08:38:08;;;;;;;5.93;1.95;;;12.10;99.90;;;;;;5101082;28;20070;-63
2021/01/11 08:40:38;;;;;;;5.97;2.63;;;12.20;99.90;;;;;;5093294;28;20130;-63
2021/01/11 08:43:25;;;;;;;7.07;1.52;;;12.30;99.90;;;;;;5105434;28;20046;-62
2021/01/11 08:45:54;;;;;;;8.73;1.67;;;12.30;99.90;;;;;;5106666;28;20047;-64
2021/01/11 08:48:25;;;;;;;8.27;2.45;;;12.40;99.90;;;;;;5110054;28;20051;-64
2021/01/11 08:50:53;;;;;;;13.02;2.17;;;12.40;99.90;;;;;;5097399;28;20048;-64
2021/01/11 08:53:21;;;;;;;8.57;1.67;;;12.40;99.90;;;;;;5097947;28;20408;-63
2021/01/11 08:56:09;;;;;;;3.92;2.33;;;12.30;99.90;;;;;;5095870;28;20097;-63
2021/01/11 08:58:46;;;;;;;8.00;1.83;;;12.20;99.90;;;;;;5115622;28;20039;-64
2021/01/11 09:01:16;;;;;;;9.15;1.83;;;12.20;99.90;;;;;;5090338;28;20079;-64
2021/01/11 09:03:55;;;;;;;5.00;1.25;;;12.10;99.90;;;;;;5104342;28;20036;-64
2021/01/11 09:06:42;;;;;;;8.50;1.65;;;12.10;99.90;;;;;;5109895;28;20173;-63
2021/01/11 09:09:14;;;;;;;6.65;1.27;;;12.20;99.90;;;;;;5096105;28;20143;-63
2021/01/11 09:11:44;;;;;;;8.55;1.70;;;12.10;99.90;;;;;;5101514;28;20563;-63
2021/01/11 09:14:17;;;;;;;8.63;2.03;;;12.20;99.90;;;;;;5106072;28;20044;-64
2021/01/11 09:16:47;;;;;;;4.72;1.50;;;12.20;99.90;;;;;;5097453;28;20058;-64
2021/01/11 09:19:16;;;;;;;6.03;1.52;;;12.30;99.90;;;;;;5100158;28;20043;-63
2021/01/11 09:21:56;;;;;;;7.68;1.90;;;12.30;99.90;;;;;;5116672;28;20048;-63
2021/01/11 09:24:27;;;;;;;7.45;2.10;;;12.30;99.90;;;;;;5107115;28;20048;-63
2021/01/11 09:26:56;;;;;;;11.20;2.72;;;12.50;99.90;;;;;;5099737;28;20472;-63
2021/01/11 09:29:25;;;;;;;3.85;1.52;;;12.50;99.90;;;;;;5111757;28;20169;-63
2021/01/11 09:31:53;;;;;;;4.78;1.77;;;12.50;99.90;;;;;;5107507;28;20047;-64
2021/01/11 09:34:21;;;;;;;10.43;2.22;;;12.50;99.90;;;;;;5107862;28;20560;-63
2021/01/11 09:36:49;;;;;;;7.85;1.75;;;12.50;99.90;;;;;;5095494;28;20043;-64
2021/01/11 09:39:17;;;;;;;10.23;2.13;;;12.50;99.90;;;;;;5109237;28;20074;-62
2021/01/11 09:41:53;;;;;;;8.15;3.95;;;12.70;99.90;;;;;;5103862;28;20564;-63
2021/01/11 09:44:21;;;;;;;12.95;2.45;;;12.90;99.90;;;;;;5115915;28;20044;-63
2021/01/11 09:46:54;;;;;;;9.70;3.10;;;13.10;99.90;;;;;;5099142;28;20055;-63
2021/01/11 09:49:24;;;;;;;7.22;1.75;;;13.20;99.90;;;;;;5095156;28;20052;-62
2021/01/11 09:51:55;;;;;;;14.65;1.55;;;13.10;99.90;;;;;;5078274;28;20075;-62
2021/01/11 09:54:24;;;;;;;7.10;1.80;;;13.10;99.90;;;;;;5060910;28;20059;-63
2021/01/11 09:56:52;;;;;;;7.63;1.52;;;13.00;99.90;;;;;;5106409;28;20044;-63
2021/01/11 09:59:20;;;;;;;5.50;1.33;;;12.90;99.90;;;;;;5103462;28;20097;-62
2021/01/11 10:01:49;;;;;;;3.80;1.83;;;12.80;99.90;;;;;;5115690;28;20054;-63
2021/01/11 10:04:18;;;;;;;6.10;1.10;;;12.70;99.90;;;;;;5104689;28;20542;-61
2021/01/11 10:06:51;;;;;;;5.25;1.42;;;12.80;99.90;;;;;;5104054;28;20603;-63
2021/01/11 10:09:28;;;;;;;5.40;0.70;;;12.90;99.90;;;;;;5096181;28;20043;-61
2021/01/11 10:12:01;;;;;;;6.90;1.48;;;12.80;99.90;;;;;;5110700;28;20488;-58
2021/01/11 10:14:32;;;;;;;9.10;2.15;;;12.90;99.90;;;;;;5094534;28;20134;-62
2021/01/11 10:17:04;;;;;;;7.07;1.52;;;12.70;99.90;;;;;;5105982;28;20496;-60
2021/01/11 10:19:32;;;;;;;12.07;1.27;;;12.80;99.90;;;;;;5097665;28;20119;-62
2021/01/11 10:22:00;;;;;;;8.70;2.45;;;12.80;99.90;;;;;;5096656;28;20420;-63
2021/01/11 10:24:28;;;;;;;9.88;2.10;;;12.80;99.90;;;;;;5096260;28;20055;-65
2021/01/11 10:26:57;;;;;;;10.95;1.65;;;12.80;99.90;;;;;;5102205;28;20043;-64
2021/01/11 10:29:26;;;;;;;9.75;1.42;;;12.80;99.90;;;;;;5105248;28;20139;-63
2021/01/11 10:31:54;;;;;;;4.75;1.00;;;12.80;99.90;;;;;;5110380;28;20097;-62
2021/01/11 10:34:22;;;;;;;5.43;1.02;;;12.70;99.90;;;;;;5106192;28;20411;-64
2021/01/11 10:36:52;;;;;;;10.25;2.60;;;12.60;99.90;;;;;;5107532;28;20056;-62
2021/01/11 10:39:23;;;;;;;15.18;2.83;;;12.70;99.90;;;;;;5097346;28;20055;-63
2021/01/11 10:41:55;;;;;;;8.20;2.50;;;12.70;99.90;;;;;;5095293;28;20504;-64
2021/01/11 10:44:29;;;;;;;13.23;1.35;;;12.80;99.90;;;;;;5094741;28;20052;-64
2021/01/11 10:47:00;;;;;;;9.07;1.70;;;12.80;99.90;;;;;;5095174;28;20424;-65
2021/01/11 10:49:31;;;;;;;5.75;1.20;;;12.90;99.90;;;;;;5094823;28;20048;-63
2021/01/11 10:52:00;;;;;;;6.07;1.67;;;13.10;99.90;;;;;;5101646;28;20054;-63
2021/01/11 10:54:28;;;;;;;9.70;1.77;;;13.50;99.90;;;;;;5113345;28;20048;-64
2021/01/11 10:56:58;;;;;;;6.93;1.35;;;13.70;99.90;;;;;;5115001;28;20046;-64
2021/01/11 10:59:26;;;;;;;10.23;1.85;;;13.70;99.90;;;;;;5114237;28;20509;-65
2021/01/11 11:01:54;;;;;;;8.23;2.63;;;13.70;99.90;;;;;;5094815;28;20560;-63
2021/01/11 11:04:23;;;;;;;14.68;1.80;;;13.40;99.90;;;;;;5094566;28;20060;-64
2021/01/11 11:06:56;;;;;;;10.60;1.63;;;13.20;99.90;;;;;;5108921;28;20541;-65
2021/01/11 11:09:23;;;;;;;7.38;1.48;;;13.00;99.90;;;;;;5087145;28;20051;-63
2021/01/11 11:11:55;;;;;;;8.23;1.55;;;12.90;99.90;;;;;;5103315;28;20074;-62
2021/01/11 11:14:23;;;;;;;7.18;0.90;;;12.80;99.90;;;;;;5093610;28;20048;-64
2021/01/11 11:16:53;;;;;;;9.43;2.80;;;12.80;99.90;;;;;;5101149;28;20389;-64
2021/01/11 11:19:22;;;;;;;6.45;1.83;;;12.90;99.90;;;;;;5076242;28;20040;-65
2021/01/11 11:21:50;;;;;;;5.90;1.35;;;12.90;99.90;;;;;;5093255;28;20044;-65
2021/01/11 11:24:18;;;;;;;15.77;4.03;;;13.10;99.90;;;;;;5086070;28;20071;-65
2021/01/11 11:26:46;;;;;;;12.80;1.52;;;13.20;99.90;;;;;;5112204;28;20526;-65
2021/01/11 11:29:14;;;;;;;7.45;1.38;;;13.30;99.90;;;;;;5094784;28;20055;-65
2021/01/11 11:31:42;;;;;;;8.43;1.70;;;13.20;99.90;;;;;;5095993;28;20070;-64
2021/01/11 11:34:15;;;;;;;11.07;1.70;;;13.30;99.90;;;;;;5097943;28;20550;-64
2021/01/11 11:36:44;;;;;;;8.25;1.10;;;13.20;99.90;;;;;;5108807;28;20438;-66
2021/01/11 11:39:12;;;;;;;11.18;2.25;;;13.20;99.90;;;;;;5096133;28;20074;-64
2021/01/11 11:41:41;;;;;;;7.18;1.77;;;13.20;99.90;;;;;;5089561;28;20127;-64
2021/01/11 11:44:15;;;;;;;4.43;1.67;;;13.10;99.90;;;;;;5076047;28;20044;-64
2021/01/11 11:46:42;;;;;;;11.68;3.28;;;13.00;99.90;;;;;;5078251;28;20096;-64
2021/01/11 11:49:13;;;;;;;8.15;1.25;;;13.00;99.90;;;;;;5113759;28;20054;-64
2021/01/11 11:51:45;;;;;;;7.35;1.65;;;12.90;99.90;;;;;;5112829;28;20428;-64
2021/01/11 11:54:13;;;;;;;5.85;1.55;;;13.00;99.90;;;;;;5099465;28;20059;-64
2021/01/11 11:56:41;;;;;;;8.15;2.35;;;12.90;99.90;;;;;;5098131;28;20101;-63
2021/01/11 11:59:10;;;;;;;16.40;2.35;;;12.90;99.90;;;;;;5102576;28;20051;-64
2021/01/11 12:01:39;;;;;;;5.47;2.00;;;13.10;99.90;;;;;;5096178;28;20044;-63
2021/01/11 12:04:08;;;;;;;5.25;1.23;;;13.30;99.90;;;;;;5091697;28;20089;-62
2021/01/11 12:06:44;;;;;;;8.25;1.55;;;13.20;99.90;;;;;;5112214;28;20053;-64
2021/01/11 12:09:13;;;;;;;6.93;2.92;;;13.20;99.90;;;;;;5111543;28;20058;-63
2021/01/11 12:11:51;;;;;;;10.90;1.83;;;13.20;99.90;;;;;;5099741;28;20048;-63
2021/01/11 12:14:23;;;;;;;3.85;1.00;;;13.10;99.90;;;;;;5095491;28;20050;-65
2021/01/11 12:16:51;;;;;;;11.45;3.13;;;13.10;99.90;;;;;;5112063;28;20508;-63
2021/01/11 12:23:57;;;;;;;3.00;1.20;;;13.30;99.90;;;;;;5075060;28;20397;-66
2021/01/11 12:26:25;;;;;;;9.27;1.90;;;13.20;99.90;;;;;;5104651;28;20054;-65
2021/01/11 12:28:53;;;;;;;9.15;2.20;;;13.10;99.90;;;;;;5111345;28;20075;-64
2021/01/11 12:31:27;;;;;;;9.25;2.03;;;13.10;99.90;;;;;;5112628;28;20173;-64
2021/01/11 12:33:55;;;;;;;5.53;1.20;;;13.10;99.90;;;;;;5080200;28;20497;-64
2021/01/11 12:36:30;;;;;;;12.90;2.80;;;12.90;99.90;;;;;;5102616;28;20311;-64
2021/01/11 12:38:59;;;;;;;4.75;1.80;;;12.90;99.90;;;;;;5112398;28;20058;-65
2021/01/11 12:41:27;;;;;;;26.25;2.47;;;12.90;99.90;;;;;;5112564;28;20411;-64
2021/01/11 12:43:58;;;;;;;7.43;1.63;;;12.90;99.90;;;;;;5113419;28;20078;-64
2021/01/11 12:46:26;;;;;;;5.95;1.60;;;12.90;99.90;;;;;;5105062;28;20074;-65
2021/01/11 12:48:54;;;;;;;3.70;1.52;;;12.90;99.90;;;;;;5074787;28;20052;-64
2021/01/11 12:51:23;;;;;;;12.40;1.25;;;12.90;99.90;;;;;;5091905;28;20048;-61
2021/01/11 12:53:51;;;;;;;15.10;1.83;;;12.90;99.90;;;;;;5092678;28;20081;-63
2021/01/11 12:56:24;;;;;;;6.55;1.75;;;13.00;99.90;;;;;;5099274;28;20052;-63
2021/01/11 12:58:54;;;;;;;7.22;1.65;;;13.00;99.90;;;;;;5111789;28;20052;-63
2021/01/11 13:01:30;;;;;;;4.65;2.15;;;13.00;99.90;;;;;;5091440;28;20059;-63
2021/01/11 13:04:02;;;;;;;21.10;4.38;;;13.10;99.90;;;;;;5092107;28;20085;-64
2021/01/11 13:06:35;;;;;;;7.55;1.88;;;13.10;99.90;;;;;;5092975;28;20462;-64
2021/01/11 13:09:08;;;;;;;10.75;2.15;;;13.00;99.90;;;;;;5100924;28;20408;-64